Time;durP1;ratioP1;P1;durP2;ratioP2;P2;SDS_P1;SDS_P2;PMS_P1;PMS_P2;Temp;Humidity;BMP_temperature;BMP_pressure;BME280_temperature;BME280_humidity;BME280_pressure;Samples;Min_cycle;Max_cycle;Signal;HPM_P1;HPM_P2
2021/07/19 00:00:13;;;;;;;8.70;7.07;;;17.80;99.90;;;;;;4959349;28;20458;-58
2021/07/19 00:02:41;;;;;;;8.37;7.13;;;17.80;99.90;;;;;;4959732;28;20474;-59
2021/07/19 00:05:11;;;;;;;7.43;6.73;;;17.60;99.90;;;;;;4972826;28;20807;-55
2021/07/19 00:07:41;;;;;;;9.70;6.73;;;17.50;99.90;;;;;;4979307;28;20764;-57
2021/07/19 00:10:11;;;;;;;9.77;7.57;;;17.50;99.90;;;;;;4978907;28;20642;-59
2021/07/19 00:12:39;;;;;;;8.77;7.17;;;17.40;99.90;;;;;;4979156;28;20808;-59
2021/07/19 00:15:10;;;;;;;8.97;7.17;;;17.40;99.90;;;;;;4979324;28;20918;-59
2021/07/19 00:17:38;;;;;;;7.80;7.10;;;17.30;99.90;;;;;;4979425;28;20533;-58
2021/07/19 00:20:07;;;;;;;9.90;6.83;;;17.30;99.90;;;;;;4978942;28;20501;-59
2021/07/19 00:22:34;;;;;;;8.50;7.60;;;17.30;99.90;;;;;;4979222;28;20568;-59
2021/07/19 00:25:01;;;;;;;8.20;7.40;;;17.30;99.90;;;;;;4978750;28;20465;-57
2021/07/19 00:27:28;;;;;;;9.07;8.10;;;17.20;99.90;;;;;;4979276;28;20465;-59
2021/07/19 00:29:55;;;;;;;8.63;7.17;;;17.30;99.90;;;;;;4979222;28;20470;-60
2021/07/19 00:32:24;;;;;;;12.63;9.20;;;17.20;99.90;;;;;;4979311;28;20469;-59
2021/07/19 00:34:51;;;;;;;8.67;7.80;;;17.20;99.90;;;;;;4978813;28;20890;-59
2021/07/19 00:37:18;;;;;;;10.47;8.53;;;17.10;99.90;;;;;;4978890;28;20504;-59
2021/07/19 00:39:45;;;;;;;9.10;8.30;;;17.10;99.90;;;;;;4978463;28;20466;-59
2021/07/19 00:42:12;;;;;;;10.17;7.53;;;17.00;99.90;;;;;;4978742;28;20461;-58
2021/07/19 00:44:39;;;;;;;9.40;7.80;;;17.00;99.90;;;;;;4978671;28;20525;-58
2021/07/19 00:47:10;;;;;;;8.50;7.80;;;17.00;99.90;;;;;;4978599;28;20468;-59
2021/07/19 00:49:39;;;;;;;8.70;7.90;;;16.90;99.90;;;;;;4978946;28;20470;-59
2021/07/19 00:52:06;;;;;;;9.03;7.73;;;16.90;99.90;;;;;;4978272;28;20498;-59
2021/07/19 00:54:34;;;;;;;9.20;7.93;;;16.80;99.90;;;;;;4978905;28;20914;-59
2021/07/19 00:57:05;;;;;;;10.80;8.57;;;16.80;99.90;;;;;;4978536;28;21026;-58
2021/07/19 00:59:35;;;;;;;9.77;7.50;;;16.70;99.90;;;;;;4979057;28;20466;-59
2021/07/19 01:02:07;;;;;;;10.03;8.10;;;16.60;99.90;;;;;;4978736;28;20530;-58
2021/07/19 01:04:37;;;;;;;10.53;8.23;;;16.50;99.90;;;;;;4975787;28;20502;-58
2021/07/19 01:07:07;;;;;;;13.80;7.80;;;16.50;99.90;;;;;;4972268;28;20437;-59
2021/07/19 01:09:37;;;;;;;9.43;7.53;;;16.60;99.90;;;;;;4978410;28;20469;-59
2021/07/19 01:12:05;;;;;;;8.80;7.90;;;16.50;99.90;;;;;;4977184;28;20449;-60
2021/07/19 01:14:32;;;;;;;8.37;7.60;;;16.50;99.90;;;;;;4978749;28;20469;-59
2021/07/19 01:17:00;;;;;;;8.73;7.90;;;16.40;99.90;;;;;;4978699;28;20502;-59
2021/07/19 01:19:31;;;;;;;9.40;8.20;;;16.40;99.90;;;;;;4978665;28;20468;-58
2021/07/19 01:22:45;;;;;;;9.23;7.43;;;16.40;99.90;;;;;;4978046;28;20907;-59
2021/07/19 01:25:29;;;;;;;7.93;7.13;;;16.30;99.90;;;;;;4958208;28;20478;-59
2021/07/19 01:28:16;;;;;;;11.20;7.30;;;16.20;99.90;;;;;;4978649;28;20527;-59
2021/07/19 01:30:46;;;;;;;12.27;7.80;;;16.20;99.90;;;;;;4978075;28;20524;-59
2021/07/19 01:33:14;;;;;;;9.17;8.00;;;16.20;99.90;;;;;;4978067;28;20560;-59
2021/07/19 01:35:46;;;;;;;8.80;7.10;;;16.20;99.90;;;;;;4978355;28;20470;-59
2021/07/19 01:38:15;;;;;;;8.20;7.47;;;16.20;99.90;;;;;;4978236;28;20505;-59
2021/07/19 01:40:42;;;;;;;9.70;7.83;;;16.10;99.90;;;;;;4977767;28;20778;-60
2021/07/19 01:43:11;;;;;;;9.73;7.00;;;16.10;99.90;;;;;;4978082;28;20524;-59
2021/07/19 01:45:39;;;;;;;10.37;6.80;;;16.10;99.90;;;;;;4978053;28;20470;-58
2021/07/19 01:48:10;;;;;;;12.50;8.40;;;16.10;99.90;;;;;;4977785;28;20466;-60
2021/07/19 01:50:40;;;;;;;9.50;8.50;;;16.10;99.90;;;;;;4978160;28;20493;-60
2021/07/19 01:53:08;;;;;;;9.70;8.80;;;16.00;99.90;;;;;;4977801;28;20466;-60
2021/07/19 01:55:36;;;;;;;11.57;10.20;;;16.00;99.90;;;;;;4978203;28;20899;-60
2021/07/19 01:58:04;;;;;;;10.30;9.27;;;16.00;99.90;;;;;;4977626;28;20560;-60
2021/07/19 02:00:32;;;;;;;9.93;8.70;;;16.00;99.90;;;;;;4978423;28;20466;-60
2021/07/19 02:02:59;;;;;;;10.43;7.90;;;15.90;99.90;;;;;;4974124;28;20489;-60
2021/07/19 02:45:21;;;;;;;9.57;8.50;;;15.50;99.90;;;;;;4568711;23;20493;-60
2021/07/19 02:47:51;;;;;;;15.00;9.00;;;15.50;99.90;;;;;;4982012;28;20521;-60
2021/07/19 02:50:22;;;;;;;9.00;7.80;;;15.50;99.90;;;;;;4981817;28;20473;-60
2021/07/19 02:52:51;;;;;;;10.50;8.43;;;15.50;99.90;;;;;;4980634;28;20466;-60
2021/07/19 02:55:18;;;;;;;10.03;9.00;;;15.40;99.90;;;;;;4981035;28;20465;-60
2021/07/19 02:57:47;;;;;;;10.63;8.90;;;15.40;99.90;;;;;;4980839;28;20588;-60
2021/07/19 03:00:17;;;;;;;11.93;9.63;;;15.40;99.90;;;;;;4980507;28;20466;-60
2021/07/19 03:02:50;;;;;;;13.33;10.00;;;15.40;99.90;;;;;;4977176;28;20470;-60
2021/07/19 03:05:24;;;;;;;12.57;10.57;;;15.40;99.90;;;;;;4975458;28;20953;-60
2021/07/19 03:07:58;;;;;;;10.87;8.67;;;15.40;99.90;;;;;;4980440;28;20528;-60
2021/07/19 03:10:28;;;;;;;11.27;10.10;;;15.30;99.90;;;;;;4980476;28;20497;-60
2021/07/19 03:12:59;;;;;;;10.13;9.03;;;15.30;99.90;;;;;;4980128;28;20825;-60
2021/07/19 03:15:30;;;;;;;10.87;9.77;;;15.30;99.90;;;;;;4980431;28;20444;-60
2021/07/19 03:18:00;;;;;;;10.30;9.30;;;15.30;99.90;;;;;;4980513;28;20515;-60
2021/07/19 03:20:29;;;;;;;10.53;8.90;;;15.30;99.90;;;;;;4980111;28;20481;-60
2021/07/19 03:22:57;;;;;;;11.43;9.23;;;15.20;99.90;;;;;;4980072;28;20974;-60
2021/07/19 03:25:27;;;;;;;12.80;10.17;;;15.20;99.90;;;;;;4979980;28;20469;-60
2021/07/19 03:27:55;;;;;;;9.93;8.90;;;15.20;99.90;;;;;;4980400;28;20524;-60
2021/07/19 03:30:24;;;;;;;11.20;9.53;;;15.20;99.90;;;;;;4980342;28;20528;-60
2021/07/19 03:32:53;;;;;;;9.97;8.97;;;15.20;99.90;;;;;;4980402;28;20508;-60
2021/07/19 03:35:26;;;;;;;12.50;9.90;;;15.30;99.90;;;;;;4979021;28;20469;-60
2021/07/19 03:37:54;;;;;;;10.60;9.07;;;15.30;99.90;;;;;;4980133;28;20529;-60
2021/07/19 03:40:23;;;;;;;10.23;9.03;;;15.20;99.90;;;;;;4960125;29;20470;-60
2021/07/19 03:42:51;;;;;;;12.37;9.03;;;15.20;99.90;;;;;;4960718;29;20467;-60
2021/07/19 03:45:19;;;;;;;12.30;10.97;;;15.10;99.90;;;;;;4960337;29;20494;-60
2021/07/19 03:47:47;;;;;;;11.40;10.07;;;15.10;99.90;;;;;;4979439;28;20883;-60
2021/07/19 03:50:15;;;;;;;12.23;9.73;;;15.10;99.90;;;;;;4980054;28;20501;-60
2021/07/19 03:52:46;;;;;;;11.13;9.93;;;15.10;99.90;;;;;;4979812;28;20466;-60
2021/07/19 03:55:16;;;;;;;12.53;9.93;;;15.10;99.90;;;;;;4979655;28;20469;-60
2021/07/19 03:57:44;;;;;;;11.33;10.00;;;15.00;99.90;;;;;;4979998;28;20498;-60
2021/07/19 04:00:13;;;;;;;19.47;10.80;;;15.00;99.90;;;;;;4979863;28;20466;-60
2021/07/19 04:02:42;;;;;;;12.10;10.23;;;15.00;99.90;;;;;;4977437;28;20533;-60
2021/07/19 04:05:13;;;;;;;24.13;18.70;;;15.00;99.90;;;;;;4972674;28;20775;-60
2021/07/19 04:07:47;;;;;;;15.33;11.03;;;15.00;99.90;;;;;;4979587;28;20478;-60
2021/07/19 04:10:16;;;;;;;11.77;10.50;;;15.10;99.90;;;;;;4979297;28;20766;-60
2021/07/19 04:12:45;;;;;;;12.60;10.27;;;15.10;99.90;;;;;;4979021;28;20450;-60
2021/07/19 04:15:14;;;;;;;14.80;10.77;;;15.10;99.90;;;;;;4979812;28;20461;-60
2021/07/19 04:17:42;;;;;;;11.77;10.57;;;15.10;99.90;;;;;;4979768;28;20468;-60
2021/07/19 04:20:11;;;;;;;12.27;10.77;;;15.10;99.90;;;;;;4979425;28;20465;-60
2021/07/19 04:22:39;;;;;;;15.50;10.20;;;15.20;99.90;;;;;;4978660;28;20466;-60
2021/07/19 04:25:09;;;;;;;12.80;10.60;;;15.20;99.90;;;;;;4978755;28;20495;-60
2021/07/19 04:27:38;;;;;;;13.97;10.70;;;15.30;99.90;;;;;;4979037;28;20899;-60
2021/07/19 04:30:07;;;;;;;14.10;11.43;;;15.40;99.90;;;;;;4979314;28;20469;-60
2021/07/19 04:32:35;;;;;;;12.00;10.70;;;15.40;99.90;;;;;;4978903;28;20525;-60
2021/07/19 04:35:02;;;;;;;10.60;9.53;;;15.50;99.90;;;;;;4979022;28;20470;-60
2021/07/19 04:37:29;;;;;;;13.73;10.97;;;15.60;99.90;;;;;;4978616;28;20815;-60
2021/07/19 04:39:56;;;;;;;13.17;10.53;;;15.70;99.90;;;;;;4978975;28;20556;-60
2021/07/19 04:42:25;;;;;;;16.30;11.10;;;15.70;99.90;;;;;;4979182;28;20891;-60
2021/07/19 04:44:55;;;;;;;11.50;10.37;;;15.70;99.90;;;;;;4978793;28;20525;-60
2021/07/19 04:47:22;;;;;;;11.63;10.23;;;15.90;99.90;;;;;;4978329;28;20462;-60
2021/07/19 04:49:49;;;;;;;12.47;11.27;;;15.90;99.90;;;;;;4979064;28;20465;-60
2021/07/19 04:52:16;;;;;;;11.30;10.20;;;16.00;99.90;;;;;;4978867;28;20454;-60
2021/07/19 04:54:43;;;;;;;12.33;10.50;;;16.10;99.90;;;;;;4978637;28;20532;-60
2021/07/19 04:57:14;;;;;;;13.40;11.20;;;16.10;99.90;;;;;;4978538;28;20465;-60
2021/07/19 04:59:45;;;;;;;11.17;9.97;;;16.10;99.90;;;;;;4978695;28;20465;-60
2021/07/19 05:02:15;;;;;;;12.33;11.13;;;16.20;99.90;;;;;;4978996;28;20462;-60
2021/07/19 05:04:44;;;;;;;11.27;10.20;;;16.20;99.90;;;;;;4969846;28;20474;-60
2021/07/19 05:07:13;;;;;;;14.83;11.03;;;16.20;99.90;;;;;;4977682;28;20472;-60
2021/07/19 05:09:42;;;;;;;13.50;10.80;;;16.10;99.90;;;;;;4978133;28;20462;-60
2021/07/19 05:12:12;;;;;;;11.87;10.27;;;16.20;99.90;;;;;;4978653;28;20469;-60
2021/07/19 05:14:40;;;;;;;14.30;10.23;;;16.30;99.90;;;;;;4978765;28;20469;-59
2021/07/19 05:17:11;;;;;;;12.60;11.00;;;16.40;99.90;;;;;;4978169;28;20470;-60
2021/07/19 05:19:41;;;;;;;13.73;11.30;;;16.40;99.90;;;;;;4978930;28;20464;-60
2021/07/19 05:22:12;;;;;;;12.80;10.23;;;16.40;99.90;;;;;;4978380;28;20760;-60
2021/07/19 05:24:44;;;;;;;13.20;11.77;;;16.40;99.90;;;;;;4977887;28;20520;-60
2021/07/19 05:27:13;;;;;;;14.07;10.77;;;16.60;99.90;;;;;;4978514;28;20461;-60
2021/07/19 05:29:43;;;;;;;15.73;11.20;;;16.60;99.90;;;;;;4978260;28;20806;-59
2021/07/19 05:32:11;;;;;;;14.57;10.77;;;16.70;99.90;;;;;;4978473;28;20470;-60
2021/07/19 05:34:39;;;;;;;16.90;10.83;;;16.80;99.90;;;;;;4977861;28;20472;-58
2021/07/19 05:37:06;;;;;;;14.63;11.07;;;16.70;99.90;;;;;;4977727;28;20477;-58
2021/07/19 05:39:33;;;;;;;13.33;11.90;;;16.80;99.90;;;;;;4977510;28;20540;-58
2021/07/19 05:42:00;;;;;;;14.10;10.30;;;16.90;99.90;;;;;;4978274;28;20476;-58
2021/07/19 05:44:27;;;;;;;12.17;10.93;;;17.00;99.90;;;;;;4977870;28;20498;-58
2021/07/19 05:46:59;;;;;;;12.30;11.10;;;17.10;99.90;;;;;;4978251;28;21041;-57
2021/07/19 06:26:33;;;;;;;11.77;10.27;;;18.50;99.90;;;;;;4093221;23;20499;-59
2021/07/19 06:28:59;;;;;;;11.63;10.43;;;18.60;99.90;;;;;;5000791;28;20453;-59
2021/07/19 06:31:27;;;;;;;12.73;11.10;;;18.70;99.90;;;;;;5000743;28;20461;-59
2021/07/19 06:33:55;;;;;;;11.80;10.70;;;18.60;99.90;;;;;;5000553;28;20852;-59
2021/07/19 06:36:24;;;;;;;12.90;10.97;;;18.80;99.90;;;;;;5000383;28;20774;-59
2021/07/19 06:38:53;;;;;;;11.43;10.23;;;18.90;99.90;;;;;;5000757;28;20497;-59
2021/07/19 06:41:20;;;;;;;11.60;10.20;;;19.10;99.90;;;;;;5000035;28;20832;-59
2021/07/19 06:43:51;;;;;;;13.87;9.70;;;19.10;99.90;;;;;;5000473;28;20546;-58
2021/07/19 06:46:18;;;;;;;12.10;10.83;;;19.20;99.90;;;;;;5000377;28;20460;-59
2021/07/19 06:48:48;;;;;;;12.60;11.40;;;19.10;99.90;;;;;;5000542;28;20554;-59
2021/07/19 06:51:15;;;;;;;14.13;9.80;;;18.80;99.90;;;;;;5000625;28;20898;-58
2021/07/19 06:53:42;;;;;;;10.93;9.93;;;18.80;99.90;;;;;;4999363;28;20544;-59
2021/07/19 06:56:09;;;;;;;13.47;11.40;;;18.70;99.90;;;;;;5000198;28;20465;-57
2021/07/19 06:58:40;;;;;;;11.90;10.70;;;18.70;99.90;;;;;;4999750;28;20559;-59
2021/07/19 07:01:11;;;;;;;13.07;11.77;;;18.70;99.90;;;;;;4999788;28;20464;-59
2021/07/19 07:03:38;;;;;;;11.93;10.73;;;18.60;99.90;;;;;;4993942;28;20826;-58
2021/07/19 07:06:06;;;;;;;12.57;11.30;;;18.40;99.90;;;;;;4997465;28;20834;-59
2021/07/19 07:08:33;;;;;;;13.27;10.10;;;18.20;99.90;;;;;;4999551;28;20894;-59
2021/07/19 07:11:00;;;;;;;13.27;10.90;;;18.40;99.90;;;;;;4998735;28;20524;-56
2021/07/19 07:13:27;;;;;;;12.47;11.17;;;18.50;99.90;;;;;;4991410;28;20458;-59
2021/07/19 07:15:54;;;;;;;12.50;10.83;;;18.30;99.90;;;;;;4999745;28;20528;-56
2021/07/19 07:18:23;;;;;;;12.73;11.43;;;18.40;99.90;;;;;;4999703;28;20496;-56
2021/07/19 07:20:56;;;;;;;13.33;11.97;;;18.40;99.90;;;;;;4999401;28;20809;-59
2021/07/19 07:23:23;;;;;;;13.73;11.50;;;18.70;99.90;;;;;;5000051;28;20465;-58
2021/07/19 07:25:51;;;;;;;12.60;10.80;;;18.90;99.90;;;;;;4999407;28;20493;-59
2021/07/19 07:28:18;;;;;;;14.47;12.13;;;19.30;99.90;;;;;;4999662;28;20460;-58
2021/07/19 07:30:50;;;;;;;16.77;13.10;;;19.40;99.90;;;;;;4999841;28;20464;-59
2021/07/19 07:33:17;;;;;;;15.20;12.50;;;19.00;99.90;;;;;;4999769;28;20528;-59
2021/07/19 08:13:34;;;;;;;20.47;18.30;;;19.20;99.90;;;;;;5133417;23;20538;-59
2021/07/19 08:16:01;;;;;;;18.70;16.40;;;19.40;99.90;;;;;;4979672;28;20826;-56
2021/07/19 08:18:28;;;;;;;18.80;16.80;;;19.60;99.90;;;;;;4979644;28;20921;-57
2021/07/19 08:20:55;;;;;;;19.20;17.27;;;19.60;99.90;;;;;;4978939;28;20473;-59
2021/07/19 09:00:17;;;;;;;19.37;17.47;;;19.10;99.90;;;;;;2948427;23;20496;-58
2021/07/19 09:02:45;;;;;;;20.40;18.27;;;19.40;99.90;;;;;;4977351;28;20465;-59
2021/07/19 09:44:07;;;;;;;23.60;21.20;;;19.40;99.90;;;;;;3048877;23;20464;-57
2021/07/19 09:46:38;;;;;;;21.93;19.93;;;19.50;99.90;;;;;;4978802;28;20828;-58
2021/07/19 09:49:05;;;;;;;20.47;18.37;;;19.50;99.90;;;;;;4977371;28;20462;-59
2021/07/19 09:51:34;;;;;;;20.93;18.80;;;19.30;99.90;;;;;;4978538;28;20556;-59
2021/07/19 09:54:11;;;;;;;22.63;18.50;;;19.50;99.90;;;;;;4977099;28;20898;-57
2021/07/19 09:56:39;;;;;;;21.50;18.10;;;19.10;99.90;;;;;;4977847;28;20527;-58
2021/07/19 09:59:08;;;;;;;19.10;17.20;;;18.80;99.90;;;;;;4976822;28;20493;-59
2021/07/19 10:01:37;;;;;;;19.90;17.80;;;19.00;99.90;;;;;;4978241;28;20894;-59
2021/07/19 10:04:18;;;;;;;21.33;17.50;;;18.90;99.90;;;;;;4969690;28;20457;-56
2021/07/19 10:06:49;;;;;;;17.73;16.03;;;19.00;99.90;;;;;;4973928;28;20529;-57
2021/07/19 10:09:17;;;;;;;19.00;17.20;;;18.80;99.90;;;;;;4977836;28;20433;-54
2021/07/19 10:11:50;;;;;;;20.23;18.13;;;19.00;99.90;;;;;;4977191;28;20465;-56
2021/07/19 10:14:27;;;;;;;20.57;18.00;;;19.10;99.90;;;;;;4975249;28;20820;-58
2021/07/19 10:16:59;;;;;;;23.43;21.03;;;19.40;99.90;;;;;;4977945;28;20519;-57
2021/07/19 10:19:27;;;;;;;21.97;19.67;;;19.30;99.90;;;;;;4977688;28;20525;-57
2021/07/19 10:21:55;;;;;;;22.60;20.30;;;19.60;99.90;;;;;;4977355;28;20458;-53
2021/07/19 10:24:25;;;;;;;19.37;17.47;;;19.70;99.90;;;;;;4977247;28;20461;-55
2021/07/19 10:26:52;;;;;;;23.33;19.30;;;20.20;99.90;;;;;;4978065;28;20538;-55
2021/07/19 10:29:19;;;;;;;22.70;19.53;;;20.50;99.90;;;;;;4977146;28;20461;-56
2021/07/19 10:31:48;;;;;;;21.23;18.97;;;20.50;99.90;;;;;;4977687;28;20465;-57
2021/07/19 10:34:19;;;;;;;20.70;18.77;;;21.10;99.90;;;;;;4977945;28;20468;-56
2021/07/19 10:36:53;;;;;;;19.27;17.50;;;21.50;99.90;;;;;;4977201;28;20520;-58
2021/07/19 10:39:24;;;;;;;19.30;17.30;;;21.70;99.80;;;;;;4977501;28;20494;-58
2021/07/19 10:42:04;;;;;;;18.73;17.03;;;21.70;99.90;;;;;;4977068;28;20472;-57
2021/07/19 10:44:35;;;;;;;16.90;15.40;;;21.70;99.90;;;;;;4979158;28;20526;-56
2021/07/19 10:47:19;;;;;;;17.30;15.70;;;21.30;99.80;;;;;;4981037;28;20465;-58
2021/07/19 10:49:59;;;;;;;16.47;15.00;;;21.30;99.90;;;;;;4979381;28;20911;-56
2021/07/19 10:52:37;;;;;;;15.93;14.33;;;21.00;99.90;;;;;;4980314;28;20902;-57
2021/07/19 10:55:05;;;;;;;15.73;13.83;;;21.00;99.90;;;;;;4980244;28;20839;-57
2021/07/19 10:57:37;;;;;;;15.50;14.00;;;20.30;99.90;;;;;;4981338;28;20898;-57
2021/07/19 11:00:07;;;;;;;14.70;13.17;;;20.00;99.90;;;;;;4980425;28;20496;-54
2021/07/19 11:02:39;;;;;;;15.83;14.30;;;20.20;99.90;;;;;;4978501;28;20466;-57
2021/07/19 11:05:07;;;;;;;14.50;13.00;;;20.30;99.90;;;;;;4973425;28;20466;-56
2021/07/19 11:07:40;;;;;;;15.47;13.97;;;20.30;99.90;;;;;;4979738;28;20552;-56
2021/07/19 11:10:17;;;;;;;14.90;13.40;;;20.50;99.90;;;;;;4980070;28;20501;-55
2021/07/19 11:12:49;;;;;;;16.43;14.07;;;20.40;99.90;;;;;;4980510;28;20477;-57
2021/07/19 11:15:21;;;;;;;18.10;14.80;;;20.20;99.90;;;;;;4980689;28;20525;-57
2021/07/19 11:17:50;;;;;;;15.27;13.87;;;20.60;99.90;;;;;;4980207;28;20529;-57
2021/07/19 11:20:18;;;;;;;14.33;12.87;;;20.90;99.90;;;;;;4979439;28;20500;-57
2021/07/19 11:22:45;;;;;;;16.13;13.77;;;21.20;99.90;;;;;;4980312;28;20461;-56
2021/07/19 11:25:14;;;;;;;15.00;13.60;;;21.00;99.90;;;;;;4980429;28;20473;-56
2021/07/19 11:27:44;;;;;;;14.80;13.20;;;20.50;99.90;;;;;;4979863;28;20465;-56
2021/07/19 11:30:13;;;;;;;16.40;14.67;;;20.60;99.90;;;;;;4980101;28;20470;-57
2021/07/19 11:32:41;;;;;;;15.87;13.87;;;20.30;99.90;;;;;;4979887;28;20470;-56
2021/07/19 11:35:13;;;;;;;15.43;13.53;;;20.40;99.90;;;;;;4979988;28;20466;-57
2021/07/19 11:37:44;;;;;;;16.83;15.23;;;20.20;99.90;;;;;;4979905;28;20949;-55
2021/07/19 12:16:27;;;;;;;18.40;16.60;;;22.50;91.80;;;;;;5500669;23;20448;31
2021/07/19 12:18:59;;;;;;;17.83;16.03;;;22.50;95.70;;;;;;4957816;29;21045;-59
2021/07/19 12:21:29;;;;;;;18.97;17.27;;;22.00;95.20;;;;;;4960548;29;20455;-58
2021/07/19 12:23:58;;;;;;;21.03;18.70;;;22.10;96.30;;;;;;4960141;29;20505;-55
2021/07/19 12:26:37;;;;;;;20.30;18.33;;;22.30;95.10;;;;;;4958977;29;20561;-58
2021/07/19 12:29:06;;;;;;;17.90;16.33;;;22.40;95.80;;;;;;4957761;29;20459;-56
2021/07/19 12:31:37;;;;;;;17.30;15.70;;;22.30;95.10;;;;;;4957830;29;20953;-58
2021/07/19 12:34:08;;;;;;;16.40;14.80;;;22.10;95.20;;;;;;4958631;29;20769;-59
2021/07/19 12:36:36;;;;;;;18.97;16.80;;;22.10;96.80;;;;;;4958811;29;20474;-59
2021/07/19 12:39:12;;;;;;;18.90;15.37;;;22.00;95.20;;;;;;4959296;29;20490;-59
2021/07/19 12:41:40;;;;;;;18.20;16.40;;;21.80;96.40;;;;;;4959064;29;20603;-57
2021/07/19 12:44:08;;;;;;;19.90;17.37;;;21.60;96.00;;;;;;4958046;29;20466;-59
2021/07/19 12:46:37;;;;;;;18.73;15.60;;;21.70;97.90;;;;;;4957395;29;20470;-59
2021/07/19 12:49:04;;;;;;;19.37;15.70;;;22.10;97.20;;;;;;4958374;29;20474;-59
2021/07/19 13:29:34;;;;;;;18.40;16.60;;;23.10;81.40;;;;;;4482507;23;20497;-59
2021/07/19 13:32:19;;;;;;;18.23;16.33;;;22.50;88.80;;;;;;4998279;28;20468;-58
2021/07/19 13:34:56;;;;;;;16.30;14.77;;;22.40;92.60;;;;;;4997322;28;20820;-58
2021/07/19 13:37:24;;;;;;;16.50;14.87;;;21.80;94.30;;;;;;4997836;28;20464;-59
2021/07/19 13:39:51;;;;;;;18.90;15.10;;;22.00;94.20;;;;;;4982600;28;20568;-59
2021/07/19 13:42:21;;;;;;;16.43;14.73;;;21.70;93.90;;;;;;4977931;28;20469;-59
2021/07/19 13:44:53;;;;;;;17.20;15.60;;;21.50;95.80;;;;;;4977529;28;20472;-60
2021/07/19 13:47:23;;;;;;;18.10;16.30;;;21.30;97.90;;;;;;4993877;28;20804;-60
2021/07/19 13:49:50;;;;;;;14.90;13.27;;;21.50;99.20;;;;;;4997796;28;20818;-60
2021/07/19 13:52:18;;;;;;;18.53;16.67;;;21.70;98.10;;;;;;4997730;28;20551;-60
2021/07/19 13:54:46;;;;;;;16.83;14.90;;;21.50;96.80;;;;;;4997352;28;20465;-60
2021/07/19 13:57:13;;;;;;;17.57;15.87;;;21.40;96.70;;;;;;4997300;28;20456;-59
2021/07/19 13:59:40;;;;;;;15.93;14.30;;;21.40;97.10;;;;;;4997487;28;20999;-60
2021/07/19 14:02:08;;;;;;;15.40;14.00;;;22.10;96.90;;;;;;4997226;28;20531;-59
2021/07/19 14:04:35;;;;;;;17.73;15.83;;;22.80;94.90;;;;;;4988811;28;20477;-59
2021/07/19 14:07:07;;;;;;;14.57;13.20;;;23.40;92.60;;;;;;4996663;28;20461;-58
2021/07/19 14:09:35;;;;;;;15.90;14.40;;;23.60;90.30;;;;;;4996587;28;20465;-59
2021/07/19 14:12:02;;;;;;;16.13;14.60;;;24.20;85.70;;;;;;4996387;28;20551;-59
2021/07/19 14:14:29;;;;;;;15.60;14.00;;;24.80;80.10;;;;;;4995314;28;20465;-60
2021/07/19 14:17:03;;;;;;;17.83;15.00;;;25.20;82.70;;;;;;4997064;28;20473;-60
2021/07/19 14:19:32;;;;;;;14.87;13.57;;;25.00;76.80;;;;;;4998929;28;20493;-59
2021/07/19 14:21:59;;;;;;;17.80;16.10;;;24.30;78.50;;;;;;5000431;28;20890;-60
2021/07/19 14:24:26;;;;;;;16.27;14.73;;;24.20;77.30;;;;;;5000868;28;20523;-60
2021/07/19 14:26:53;;;;;;;15.97;14.47;;;23.50;79.00;;;;;;5000613;28;20980;-60
2021/07/19 14:29:20;;;;;;;18.43;16.43;;;23.50;79.80;;;;;;5000822;28;20862;-60
2021/07/19 14:31:51;;;;;;;17.33;15.63;;;23.70;83.80;;;;;;5000483;28;20592;-60
2021/07/19 14:34:20;;;;;;;18.53;16.83;;;23.90;78.40;;;;;;5001335;28;20754;-60
2021/07/19 14:36:49;;;;;;;17.90;16.20;;;23.80;76.90;;;;;;5000472;28;20468;-59
2021/07/19 14:39:16;;;;;;;19.70;16.80;;;23.30;80.20;;;;;;4989323;28;20761;-59
2021/07/19 14:41:44;;;;;;;18.33;16.63;;;23.40;81.40;;;;;;4981175;28;20819;-59
2021/07/19 14:44:11;;;;;;;18.70;16.90;;;23.30;81.20;;;;;;4981486;28;20810;-59
2021/07/19 14:46:41;;;;;;;18.13;16.43;;;22.90;79.80;;;;;;4990360;28;20464;-59
2021/07/19 14:49:11;;;;;;;17.47;15.70;;;23.10;84.50;;;;;;5000576;28;20469;-59
2021/07/19 14:51:38;;;;;;;19.57;17.50;;;22.70;82.40;;;;;;5000374;28;20524;-59
2021/07/19 14:54:07;;;;;;;18.90;17.13;;;22.90;86.10;;;;;;5000308;28;20765;-59
2021/07/19 14:56:34;;;;;;;17.50;15.80;;;23.10;85.50;;;;;;5000367;28;20882;-59
2021/07/19 14:59:01;;;;;;;18.63;16.83;;;23.40;84.50;;;;;;5000464;28;20535;-59
2021/07/19 15:01:31;;;;;;;18.83;17.03;;;23.20;86.60;;;;;;5000103;28;20496;-59
2021/07/19 15:04:06;;;;;;;19.13;17.20;;;22.60;86.10;;;;;;4991907;28;20531;-59
2021/07/19 15:06:34;;;;;;;17.40;15.63;;;22.40;89.50;;;;;;4998579;28;20850;-59
2021/07/19 15:09:03;;;;;;;18.27;16.50;;;22.20;90.50;;;;;;4999948;28;20469;-59
2021/07/19 15:11:33;;;;;;;20.77;17.97;;;22.00;90.70;;;;;;4999874;28;20461;-59
2021/07/19 15:14:05;;;;;;;20.17;18.07;;;21.90;92.80;;;;;;4997617;28;20485;-57
2021/07/19 15:16:35;;;;;;;18.67;16.87;;;21.60;93.50;;;;;;5000427;28;20472;-59
2021/07/19 15:19:02;;;;;;;19.10;16.73;;;21.70;95.60;;;;;;5000133;28;20592;-58
2021/07/19 15:21:29;;;;;;;18.93;17.00;;;21.70;95.10;;;;;;4999541;28;20584;-58
2021/07/19 15:23:57;;;;;;;19.27;17.27;;;21.90;96.80;;;;;;5000126;28;20468;-58
2021/07/19 15:26:24;;;;;;;18.47;16.70;;;22.30;95.60;;;;;;4999865;28;20473;-57
2021/07/19 15:28:53;;;;;;;19.10;17.03;;;22.10;93.90;;;;;;4999611;28;20944;-59
2021/07/19 15:31:20;;;;;;;19.47;17.10;;;21.90;95.40;;;;;;4998597;28;20498;-59
2021/07/19 15:33:48;;;;;;;18.60;16.53;;;22.10;94.80;;;;;;4999436;28;20473;-59
2021/07/19 15:36:18;;;;;;;18.10;16.40;;;22.00;97.20;;;;;;4999808;28;20535;-58
2021/07/19 15:38:47;;;;;;;18.73;16.73;;;22.10;94.50;;;;;;4992618;28;20469;-58
2021/07/19 15:41:14;;;;;;;17.67;15.10;;;21.90;96.00;;;;;;4980084;28;20498;-59
2021/07/19 15:43:50;;;;;;;16.73;15.23;;;21.80;95.60;;;;;;4979967;28;20470;-57
2021/07/19 15:46:27;;;;;;;17.00;15.40;;;21.70;95.90;;;;;;4987244;28;20465;-59
2021/07/19 15:48:56;;;;;;;17.60;15.77;;;21.70;97.30;;;;;;4999747;28;20964;-59
2021/07/19 15:51:25;;;;;;;17.30;14.80;;;21.90;96.30;;;;;;4999403;28;20762;-58
2021/07/19 15:53:53;;;;;;;18.57;16.50;;;21.80;97.80;;;;;;4999251;28;20461;-59
2021/07/19 15:56:20;;;;;;;17.50;15.70;;;21.80;96.40;;;;;;4999391;28;20465;-59
2021/07/19 15:58:47;;;;;;;18.50;14.40;;;21.60;96.90;;;;;;4998979;28;20535;-59
2021/07/19 16:01:14;;;;;;;16.90;14.70;;;21.40;98.00;;;;;;4999068;28;20908;-56
2021/07/19 16:03:46;;;;;;;15.40;13.90;;;21.50;98.10;;;;;;4992160;28;20532;-56
2021/07/19 16:06:13;;;;;;;16.37;14.67;;;21.70;98.70;;;;;;4997246;28;20480;-58
2021/07/19 16:08:43;;;;;;;18.60;16.77;;;21.60;97.20;;;;;;4998299;28;20460;-54
2021/07/19 16:11:12;;;;;;;16.90;15.20;;;21.70;96.00;;;;;;4999162;28;20893;-55
2021/07/19 16:13:39;;;;;;;16.57;14.80;;;21.70;94.60;;;;;;4998372;28;20456;-57
2021/07/19 16:16:06;;;;;;;17.20;15.50;;;21.70;95.50;;;;;;4998523;28;20457;-58
2021/07/19 16:18:33;;;;;;;16.90;14.17;;;21.90;95.10;;;;;;4999176;28;20464;-57
2021/07/19 16:21:01;;;;;;;17.00;14.60;;;22.10;94.10;;;;;;4998257;28;20551;-58
2021/07/19 16:23:28;;;;;;;16.80;14.03;;;22.20;94.50;;;;;;4998212;28;21282;-58
2021/07/19 16:25:58;;;;;;;17.50;15.70;;;22.40;94.20;;;;;;4998379;28;20836;-56
2021/07/19 16:28:25;;;;;;;15.30;13.90;;;22.00;93.20;;;;;;4998478;28;20492;-57
2021/07/19 16:30:53;;;;;;;17.60;15.80;;;21.80;94.30;;;;;;4998390;28;20490;-56
2021/07/19 16:33:21;;;;;;;18.53;14.93;;;21.50;95.40;;;;;;4998525;28;20504;-58
2021/07/19 16:35:48;;;;;;;18.57;15.33;;;21.20;97.10;;;;;;4998384;28;20469;-58
2021/07/19 16:38:16;;;;;;;19.27;14.33;;;21.30;99.10;;;;;;4995917;28;20821;-56
2021/07/19 16:40:46;;;;;;;16.80;13.90;;;21.50;99.40;;;;;;4978741;28;20927;-57
2021/07/19 16:43:13;;;;;;;16.07;14.43;;;21.40;97.80;;;;;;4978752;28;20902;-58
2021/07/19 16:48:09;;;;;;;19.07;15.07;;;21.50;98.00;;;;;;4998368;28;20445;-59
2021/07/19 16:50:36;;;;;;;17.63;15.10;;;22.00;98.50;;;;;;4997048;28;20213;-59
2021/07/19 16:53:06;;;;;;;18.70;15.37;;;22.00;95.20;;;;;;4986025;28;20952;-59
2021/07/19 16:55:34;;;;;;;16.80;15.00;;;22.20;96.60;;;;;;4997721;28;20456;-59
2021/07/19 16:58:01;;;;;;;18.20;15.17;;;22.20;93.30;;;;;;4996794;28;20461;-57
2021/07/19 17:00:28;;;;;;;17.03;15.33;;;21.90;94.20;;;;;;4996585;28;20563;-58
2021/07/19 17:02:55;;;;;;;16.23;14.60;;;21.90;94.10;;;;;;4992919;28;20485;-59
2021/07/19 17:05:25;;;;;;;17.03;14.30;;;21.70;95.30;;;;;;4992342;28;20480;-59
2021/07/19 17:07:52;;;;;;;17.43;15.53;;;21.80;95.20;;;;;;4997917;28;20504;-59